createdAt,value
2023-05-10T00:00:07.073Z,8.48
2023-05-10T00:03:09.681Z,8.60
2023-05-10T00:06:11.942Z,9.10
2023-05-10T00:09:14.567Z,8.27
2023-05-10T00:12:16.679Z,9.02
2023-05-10T00:15:18.835Z,11.82
2023-05-10T00:18:21.298Z,8.75
2023-05-10T00:21:23.457Z,9.05
2023-05-10T00:24:26.187Z,9.30
2023-05-10T00:27:28.308Z,8.48
2023-05-10T00:30:30.421Z,10.00
2023-05-10T00:33:32.513Z,9.63
2023-05-10T00:36:34.671Z,8.73
2023-05-10T00:39:36.766Z,8.25
2023-05-10T00:42:38.830Z,8.25
2023-05-10T00:45:42.401Z,8.23
2023-05-10T00:48:46.343Z,9.15
2023-05-10T00:51:48.642Z,8.98
2023-05-10T00:54:53.158Z,8.75
2023-05-10T00:57:55.672Z,8.70
2023-05-10T01:00:58.816Z,9.63
2023-05-10T01:04:01.092Z,8.75
2023-05-10T01:07:03.244Z,8.88
2023-05-10T01:10:09.625Z,9.32
2023-05-10T01:13:12.471Z,9.13
2023-05-10T01:16:14.856Z,9.55
2023-05-10T01:19:29.306Z,8.77
2023-05-10T01:22:53.251Z,9.50
2023-05-10T01:26:01.224Z,9.30
2023-05-10T01:29:22.058Z,9.90
2023-05-10T01:33:01.123Z,9.85
2023-05-10T01:36:10.139Z,9.43
2023-05-10T01:39:21.697Z,11.33
2023-05-10T01:42:29.867Z,10.48
2023-05-10T01:46:12.104Z,10.35
2023-05-10T01:49:25.032Z,11.77
2023-05-10T01:52:31.397Z,13.27
2023-05-10T01:55:36.880Z,13.95
2023-05-10T01:58:41.695Z,14.20
2023-05-10T02:01:46.100Z,15.70
2023-05-10T02:04:50.493Z,14.70
2023-05-10T02:07:53.547Z,15.00
2023-05-10T02:10:58.018Z,15.27
2023-05-10T02:14:01.152Z,15.07
2023-05-10T02:17:05.794Z,16.48
2023-05-10T02:20:09.290Z,16.65
2023-05-10T02:23:12.129Z,17.52
2023-05-10T02:26:15.992Z,17.60
2023-05-10T02:29:19.808Z,18.67
2023-05-10T02:32:23.872Z,20.55
2023-05-10T02:35:27.256Z,21.17
2023-05-10T02:38:30.782Z,20.08
2023-05-10T02:41:33.911Z,20.23
2023-05-10T02:44:38.293Z,20.83
2023-05-10T02:47:40.666Z,20.92
2023-05-10T02:50:46.384Z,20.92
2023-05-10T02:53:52.105Z,21.27
2023-05-10T02:57:03.955Z,21.92
2023-05-10T03:00:07.334Z,21.02
2023-05-10T03:03:09.567Z,20.88
2023-05-10T03:06:11.830Z,21.35
2023-05-10T03:09:16.709Z,20.17
2023-05-10T03:12:32.904Z,20.35
2023-05-10T03:15:38.490Z,19.20
2023-05-10T03:18:48.965Z,19.98
2023-05-10T03:21:53.985Z,19.25
2023-05-10T03:24:58.610Z,19.65
2023-05-10T03:28:03.995Z,20.83
2023-05-10T03:31:07.297Z,21.13
2023-05-10T03:34:09.503Z,21.10
2023-05-10T03:37:11.519Z,22.20
2023-05-10T03:40:14.198Z,22.83
2023-05-10T03:43:16.306Z,23.42
2023-05-10T03:46:18.423Z,25.85
2023-05-10T03:49:20.495Z,25.98
2023-05-10T03:52:22.727Z,25.13
2023-05-10T03:55:25.037Z,22.80
2023-05-10T03:58:27.116Z,23.55
2023-05-10T04:01:29.198Z,25.40
2023-05-10T04:04:32.003Z,25.13
2023-05-10T04:07:34.122Z,26.58
2023-05-10T04:10:36.495Z,27.95
2023-05-10T04:13:39.255Z,27.38
2023-05-10T04:16:41.396Z,27.83
2023-05-10T04:19:43.467Z,26.92
2023-05-10T04:22:45.574Z,28.70
2023-05-10T04:25:47.731Z,26.10
2023-05-10T04:28:49.890Z,26.52
2023-05-10T04:31:52.119Z,26.38
2023-05-10T04:34:54.206Z,26.27
2023-05-10T04:37:56.374Z,25.65
2023-05-10T04:41:12.786Z,25.73
2023-05-10T04:44:15.034Z,26.38
2023-05-10T04:47:17.454Z,25.40
2023-05-10T04:50:20.189Z,24.75
2023-05-10T04:53:22.484Z,24.90
2023-05-10T04:56:24.562Z,25.25
2023-05-10T04:59:26.843Z,21.98
2023-05-10T05:02:28.977Z,18.23
2023-05-10T05:05:31.151Z,16.85
2023-05-10T05:08:33.269Z,14.30
2023-05-10T05:11:37.949Z,13.48
2023-05-10T05:14:39.995Z,11.85
2023-05-10T05:17:42.113Z,11.77
2023-05-10T05:20:44.219Z,12.02
2023-05-10T05:23:47.141Z,12.23
2023-05-10T05:26:49.701Z,11.55
2023-05-10T05:29:53.539Z,11.73
2023-05-10T05:32:55.886Z,11.70
2023-05-10T05:35:58.034Z,10.95
2023-05-10T05:39:00.102Z,11.05
2023-05-10T05:42:02.291Z,9.93
2023-05-10T05:45:04.549Z,9.52
2023-05-10T05:48:06.774Z,8.93
2023-05-10T05:51:08.913Z,8.52
2023-05-10T05:54:11.135Z,8.80
2023-05-10T05:57:13.252Z,8.13
2023-05-10T06:00:15.634Z,7.65
2023-05-10T06:03:17.900Z,8.10
2023-05-10T06:06:20.182Z,7.20
2023-05-10T06:09:22.285Z,6.85
2023-05-10T06:12:24.347Z,6.82
2023-05-10T06:15:27.133Z,6.57
2023-05-10T06:18:29.297Z,6.80
2023-05-10T06:21:31.464Z,6.85
2023-05-10T06:24:33.520Z,5.70
2023-05-10T06:27:35.769Z,5.97
2023-05-10T06:30:38.151Z,6.13
2023-05-10T06:33:40.204Z,5.13
2023-05-10T06:36:42.260Z,5.50
2023-05-10T06:39:44.327Z,5.07
2023-05-10T06:42:47.394Z,4.63
2023-05-10T06:45:49.680Z,5.03
2023-05-10T06:48:51.699Z,4.90
2023-05-10T06:51:53.750Z,5.07
2023-05-10T06:55:16.610Z,4.70
2023-05-10T06:58:18.845Z,4.13
2023-05-10T07:01:21.026Z,3.92
2023-05-10T07:04:23.156Z,3.92
2023-05-10T07:07:25.386Z,3.60
2023-05-10T07:10:27.675Z,3.30
2023-05-10T07:13:30.043Z,3.30
2023-05-10T07:16:32.195Z,3.30
2023-05-10T07:19:34.296Z,3.60
2023-05-10T07:22:36.353Z,3.00
2023-05-10T07:25:38.943Z,2.90
2023-05-10T07:28:40.981Z,2.88
2023-05-10T07:31:43.875Z,3.00
2023-05-10T07:34:45.962Z,2.85
2023-05-10T07:37:48.013Z,2.60
2023-05-10T07:40:50.045Z,2.95
2023-05-10T07:43:52.014Z,2.80
2023-05-10T07:46:54.134Z,2.13
2023-05-10T07:49:56.339Z,2.20
2023-05-10T07:52:58.592Z,2.28
2023-05-10T07:56:00.691Z,2.40
2023-05-10T07:59:08.867Z,2.55
2023-05-10T08:02:12.355Z,2.80
2023-05-10T08:05:14.841Z,2.40
2023-05-10T08:08:17.260Z,2.60
2023-05-10T08:11:19.664Z,2.30
2023-05-10T08:14:21.745Z,2.40
2023-05-10T08:17:24.791Z,2.60
2023-05-10T08:20:27.041Z,2.40
2023-05-10T08:23:29.297Z,2.50
2023-05-10T08:26:33.824Z,2.20
2023-05-10T08:29:48.921Z,2.00
2023-05-10T08:32:51.409Z,2.25
2023-05-10T08:35:53.489Z,2.60
2023-05-10T08:38:56.084Z,1.95
2023-05-10T08:42:02.998Z,2.10
2023-05-10T08:45:06.559Z,2.30
2023-05-10T08:48:10.277Z,2.20
2023-05-10T08:51:18.577Z,2.20
2023-05-10T08:54:20.786Z,2.50
2023-05-10T08:57:22.996Z,2.20
2023-05-10T09:00:25.818Z,2.30
2023-05-10T09:03:27.942Z,2.53
2023-05-10T09:06:30.857Z,2.50
2023-05-10T09:09:33.155Z,2.88
2023-05-10T09:12:36.182Z,2.58
2023-05-10T09:15:38.614Z,2.35
2023-05-10T09:18:40.798Z,2.20
2023-05-10T09:21:43.353Z,2.33
2023-05-10T09:24:46.398Z,2.33
2023-05-10T09:27:49.529Z,2.50
2023-05-10T09:30:56.578Z,2.38
2023-05-10T09:33:58.801Z,2.50
2023-05-10T09:37:03.727Z,2.80
2023-05-10T09:40:08.588Z,2.50
2023-05-10T09:43:11.866Z,2.55
2023-05-10T09:46:14.015Z,2.70
2023-05-10T09:49:16.470Z,2.90
2023-05-10T09:52:18.507Z,2.60
2023-05-10T09:55:22.823Z,2.55
2023-05-10T09:58:24.987Z,3.28
2023-05-10T10:01:30.636Z,2.92
2023-05-10T10:04:33.238Z,2.90
2023-05-10T10:07:36.340Z,2.70
2023-05-10T10:13:41.859Z,3.13
2023-05-10T10:16:59.513Z,2.90
2023-05-10T10:20:07.274Z,2.83
2023-05-10T10:23:10.779Z,3.38
2023-05-10T10:26:13.511Z,2.83
2023-05-10T10:29:40.408Z,2.80
2023-05-10T10:33:28.420Z,3.00
2023-05-10T10:36:31.513Z,3.70
2023-05-10T10:39:33.817Z,3.55
2023-05-10T10:42:50.877Z,3.50
2023-05-10T10:46:18.573Z,3.50
2023-05-10T10:49:21.200Z,3.30
2023-05-10T10:52:34.776Z,3.28
2023-05-10T10:55:49.465Z,3.67
2023-05-10T10:58:54.893Z,3.60
2023-05-10T11:01:57.258Z,3.40
2023-05-10T11:04:59.358Z,3.75
2023-05-10T11:08:07.825Z,4.00
2023-05-10T11:11:10.143Z,3.83
2023-05-10T11:14:12.272Z,3.97
2023-05-10T11:17:30.207Z,3.90
2023-05-10T11:20:40.443Z,3.90
2023-05-10T11:23:48.493Z,3.95
2023-05-10T11:26:54.937Z,3.80
2023-05-10T11:29:57.005Z,3.90
2023-05-10T11:32:59.328Z,4.20
2023-05-10T11:36:01.504Z,4.43
2023-05-10T11:39:05.475Z,3.60
2023-05-10T11:42:10.462Z,3.45
2023-05-10T11:45:12.621Z,3.80
2023-05-10T11:48:14.681Z,3.55
2023-05-10T11:51:20.808Z,3.25
2023-05-10T11:54:22.817Z,3.50
2023-05-10T11:57:28.631Z,3.60
2023-05-10T12:00:31.416Z,3.33
2023-05-10T12:03:34.420Z,3.47
2023-05-10T12:06:41.742Z,3.40
2023-05-10T12:10:10.102Z,3.70
2023-05-10T12:13:15.153Z,3.40
2023-05-10T12:16:22.406Z,3.10
2023-05-10T12:19:24.473Z,3.70
2023-05-10T12:22:26.767Z,3.50
2023-05-10T12:25:36.142Z,3.75
2023-05-10T12:28:38.974Z,3.60
2023-05-10T12:31:55.574Z,3.70
2023-05-10T12:34:58.921Z,3.60
2023-05-10T12:38:01.081Z,3.50
2023-05-10T12:41:05.195Z,3.97
2023-05-10T12:44:07.300Z,3.67
2023-05-10T12:47:11.915Z,3.78
2023-05-10T12:50:13.998Z,3.95
2023-05-10T12:53:16.735Z,4.03
2023-05-10T12:56:18.797Z,4.00
2023-05-10T12:59:20.902Z,4.03
2023-05-10T13:02:24.112Z,3.78
2023-05-10T13:05:26.225Z,4.05
2023-05-10T13:08:28.702Z,3.95
2023-05-10T13:11:30.847Z,3.95
2023-05-10T13:14:32.946Z,4.00
2023-05-10T13:17:34.964Z,4.20
2023-05-10T13:20:37.486Z,3.90
2023-05-10T13:23:39.480Z,4.15
2023-05-10T13:26:41.927Z,4.40
2023-05-10T13:29:45.283Z,4.30
2023-05-10T13:32:47.993Z,4.28
2023-05-10T13:35:50.074Z,4.40
2023-05-10T13:38:52.092Z,4.30
2023-05-10T13:41:55.691Z,4.30
2023-05-10T13:44:58.016Z,4.13
2023-05-10T13:48:00.079Z,4.28
2023-05-10T13:51:02.153Z,4.07
2023-05-10T13:54:04.352Z,3.67
2023-05-10T13:57:06.464Z,3.83
2023-05-10T14:00:09.066Z,3.42
2023-05-10T14:03:12.293Z,3.40
2023-05-10T14:06:14.666Z,3.83
2023-05-10T14:09:17.529Z,3.78
2023-05-10T14:12:19.588Z,3.75
2023-05-10T14:15:21.639Z,3.90
2023-05-10T14:18:23.876Z,3.50
2023-05-10T14:21:26.000Z,3.28
2023-05-10T14:24:28.271Z,3.20
2023-05-10T14:27:31.247Z,3.10
2023-05-10T14:30:35.204Z,3.35
2023-05-10T14:33:37.165Z,3.40
2023-05-10T14:36:39.215Z,3.40
2023-05-10T14:39:41.256Z,3.10
2023-05-10T14:42:44.101Z,3.50
2023-05-10T14:45:46.399Z,3.55
2023-05-10T14:48:48.490Z,3.45
2023-05-10T14:51:50.511Z,3.72
2023-05-10T14:54:52.699Z,3.58
2023-05-10T14:57:55.211Z,3.38
2023-05-10T15:00:57.777Z,3.70
2023-05-10T15:04:00.390Z,3.70
2023-05-10T15:07:02.862Z,3.30
2023-05-10T15:10:05.576Z,3.40
2023-05-10T15:13:07.610Z,3.42
2023-05-10T15:16:09.592Z,3.80
2023-05-10T15:19:11.705Z,3.70
2023-05-10T15:22:13.715Z,3.42
2023-05-10T15:25:17.305Z,3.30
2023-05-10T15:28:19.469Z,3.67
2023-05-10T15:31:21.447Z,3.60
2023-05-10T15:34:23.497Z,3.22
2023-05-10T15:37:25.561Z,3.28
2023-05-10T15:40:27.623Z,3.90
2023-05-10T15:43:29.676Z,3.55
2023-05-10T15:46:31.986Z,3.80
2023-05-10T15:49:34.151Z,3.53
2023-05-10T15:52:36.235Z,4.00
2023-05-10T15:55:38.315Z,4.00
2023-05-10T15:58:41.711Z,3.97
2023-05-10T16:01:44.930Z,3.72
2023-05-10T16:04:47.200Z,4.00
2023-05-10T16:07:49.434Z,3.75
2023-05-10T16:10:51.892Z,3.90
2023-05-10T16:13:54.578Z,4.05
2023-05-10T16:16:56.710Z,3.92
2023-05-10T16:19:58.758Z,3.80
2023-05-10T16:23:04.476Z,3.67
2023-05-10T16:26:06.746Z,3.63
2023-05-10T16:29:09.188Z,4.00
2023-05-10T16:32:11.555Z,3.85
2023-05-10T16:35:13.684Z,4.00
2023-05-10T16:38:15.669Z,3.65
2023-05-10T16:41:17.712Z,3.90
2023-05-10T16:44:20.842Z,3.90
2023-05-10T16:47:26.732Z,4.20
2023-05-10T16:50:28.971Z,4.43
2023-05-10T16:53:31.421Z,4.38
2023-05-10T16:56:33.428Z,4.35
2023-05-10T16:59:35.436Z,3.90
2023-05-10T17:02:37.696Z,4.72
2023-05-10T17:05:40.578Z,4.47
2023-05-10T17:08:42.594Z,4.80
2023-05-10T17:11:44.626Z,4.43
2023-05-10T17:14:46.956Z,4.55
2023-05-10T17:17:49.002Z,4.70
2023-05-10T17:20:51.249Z,4.57
2023-05-10T17:23:53.270Z,5.10
2023-05-10T17:26:55.806Z,4.78
2023-05-10T17:29:58.779Z,5.13
2023-05-10T17:33:01.831Z,5.05
2023-05-10T17:36:04.153Z,5.15
2023-05-10T17:39:06.911Z,5.03
2023-05-10T17:42:08.972Z,5.00
2023-05-10T17:45:12.038Z,5.47
2023-05-10T17:48:14.116Z,5.85
2023-05-10T17:51:16.173Z,6.15
2023-05-10T17:54:18.217Z,5.30
2023-05-10T17:57:20.812Z,5.38
2023-05-10T18:00:22.925Z,5.95
2023-05-10T18:03:25.121Z,5.60
2023-05-10T18:06:27.445Z,6.18
2023-05-10T18:09:29.849Z,5.85
2023-05-10T18:12:31.903Z,5.80
2023-05-10T18:15:34.693Z,5.30
2023-05-10T18:18:37.080Z,5.95
2023-05-10T18:21:39.676Z,5.68
2023-05-10T18:24:42.374Z,5.93
2023-05-10T18:27:44.804Z,5.90
2023-05-10T18:30:48.109Z,6.20
2023-05-10T18:33:51.105Z,6.15
2023-05-10T18:36:54.004Z,13.40
2023-05-10T18:39:57.760Z,13.68
2023-05-10T18:43:01.007Z,15.95
2023-05-10T18:46:04.098Z,15.15
2023-05-10T18:49:08.499Z,12.52
2023-05-10T18:52:11.648Z,11.15
2023-05-10T18:55:16.411Z,10.02
2023-05-10T18:58:21.092Z,9.27
2023-05-10T19:01:26.030Z,9.70
2023-05-10T19:04:29.416Z,13.13
2023-05-10T19:07:32.900Z,15.68
2023-05-10T19:10:36.571Z,16.88
2023-05-10T19:13:40.773Z,13.48
2023-05-10T19:16:44.712Z,11.45
2023-05-10T19:19:50.143Z,8.40
2023-05-10T19:23:08.483Z,10.68
2023-05-10T19:26:16.048Z,6.78
2023-05-10T19:29:19.484Z,9.65
2023-05-10T19:32:22.617Z,5.43
2023-05-10T19:35:26.199Z,5.32
2023-05-10T19:38:29.947Z,4.82
2023-05-10T19:41:33.150Z,5.07
2023-05-10T19:44:36.759Z,4.68
2023-05-10T19:47:40.216Z,5.07
2023-05-10T19:50:43.592Z,4.72
2023-05-10T19:53:46.818Z,5.22
2023-05-10T19:56:50.368Z,4.95
2023-05-10T19:59:53.206Z,4.65
2023-05-10T20:02:56.305Z,5.45
2023-05-10T20:05:59.907Z,4.97
2023-05-10T20:09:03.335Z,4.45
2023-05-10T20:12:05.776Z,4.43
2023-05-10T20:15:08.326Z,4.75
2023-05-10T20:18:11.211Z,4.78
2023-05-10T20:21:13.811Z,4.50
2023-05-10T20:24:16.273Z,4.90
2023-05-10T20:27:21.521Z,4.55
2023-05-10T20:30:24.531Z,4.78
2023-05-10T20:33:27.740Z,4.47
2023-05-10T20:36:31.217Z,4.32
2023-05-10T20:39:34.961Z,4.35
2023-05-10T20:42:37.860Z,4.57
2023-05-10T20:45:41.000Z,4.53
2023-05-10T20:48:44.939Z,4.22
2023-05-10T20:51:47.461Z,4.55
2023-05-10T20:54:49.782Z,4.60
2023-05-10T20:57:52.875Z,4.28
2023-05-10T21:00:54.918Z,4.47
2023-05-10T21:03:56.988Z,4.22
2023-05-10T21:06:59.013Z,4.38
2023-05-10T21:10:01.109Z,4.50
2023-05-10T21:13:03.162Z,4.40
2023-05-10T21:16:05.527Z,4.10
2023-05-10T21:19:07.782Z,4.50
2023-05-10T21:22:09.947Z,4.55
2023-05-10T21:25:12.170Z,4.28
2023-05-10T21:28:14.250Z,4.18
2023-05-10T21:31:16.982Z,4.25
2023-05-10T21:34:20.995Z,4.00
2023-05-10T21:37:23.178Z,4.13
2023-05-10T21:40:25.212Z,4.45
2023-05-10T21:43:27.272Z,4.35
2023-05-10T21:46:29.372Z,4.28
2023-05-10T21:49:31.471Z,4.32
2023-05-10T21:52:33.469Z,4.88
2023-05-10T21:55:35.808Z,4.40
2023-05-10T21:58:37.872Z,4.35
2023-05-10T22:01:40.022Z,4.95
2023-05-10T22:04:42.290Z,4.55
2023-05-10T22:07:44.295Z,4.50
2023-05-10T22:10:46.354Z,4.30
2023-05-10T22:13:48.395Z,4.50
2023-05-10T22:16:50.517Z,4.40
2023-05-10T22:19:52.665Z,4.60
2023-05-10T22:22:55.754Z,4.35
2023-05-10T22:26:04.217Z,4.47
2023-05-10T22:29:06.592Z,4.50
2023-05-10T22:32:08.700Z,4.55
2023-05-10T22:35:10.709Z,4.70
2023-05-10T22:38:12.855Z,4.97
2023-05-10T22:41:14.904Z,4.15
2023-05-10T22:44:17.709Z,4.50
2023-05-10T22:47:19.733Z,4.40
2023-05-10T22:50:22.053Z,4.72
2023-05-10T22:53:24.239Z,4.78
2023-05-10T22:56:26.383Z,4.57
2023-05-10T22:59:28.796Z,4.50
2023-05-10T23:02:31.713Z,4.25
2023-05-10T23:05:33.846Z,4.30
2023-05-10T23:08:35.855Z,4.80
2023-05-10T23:11:37.945Z,4.20
2023-05-10T23:14:41.523Z,4.35
2023-05-10T23:17:43.643Z,4.57
2023-05-10T23:20:45.906Z,4.57
2023-05-10T23:23:48.032Z,4.82
2023-05-10T23:26:50.074Z,4.78
2023-05-10T23:29:55.636Z,4.80
2023-05-10T23:32:58.011Z,4.95
2023-05-10T23:36:00.122Z,5.07
2023-05-10T23:39:02.258Z,4.88
2023-05-10T23:42:04.345Z,5.03
2023-05-10T23:45:06.787Z,4.80
2023-05-10T23:48:09.095Z,4.93
2023-05-10T23:51:11.464Z,4.97
2023-05-10T23:54:13.504Z,5.18
2023-05-10T23:57:15.546Z,5.30
